createdAt,value
2018-02-13T00:00:54.073Z,8.85
2018-02-13T00:01:59.267Z,8.45
2018-02-13T00:03:03.716Z,8.57
2018-02-13T00:04:08.153Z,8.13
2018-02-13T00:05:12.619Z,8.57
2018-02-13T00:06:17.833Z,8.60
2018-02-13T00:07:23.105Z,8.00
2018-02-13T00:08:27.550Z,8.75
2018-02-13T00:09:32.004Z,9.10
2018-02-13T00:10:36.469Z,9.02
2018-02-13T00:11:40.945Z,10.50
2018-02-13T00:12:45.398Z,9.23
2018-02-13T00:13:49.842Z,8.63
2018-02-13T00:14:55.380Z,8.43
2018-02-13T00:16:00.623Z,9.50
2018-02-13T00:17:05.068Z,10.05
2018-02-13T00:18:10.515Z,8.45
2018-02-13T00:19:14.960Z,8.75
2018-02-13T00:20:19.406Z,8.75
2018-02-13T00:21:23.889Z,9.30
2018-02-13T00:22:40.282Z,7.95
2018-02-13T00:23:45.490Z,8.63
2018-02-13T00:24:49.926Z,8.52
2018-02-13T00:25:54.380Z,9.98
2018-02-13T00:26:58.851Z,9.25
2018-02-13T00:28:03.289Z,9.95
2018-02-13T00:29:07.734Z,9.65
2018-02-13T00:30:12.209Z,9.77
2018-02-13T00:31:16.642Z,8.70
2018-02-13T00:32:21.105Z,8.65
2018-02-13T00:33:25.553Z,9.85
2018-02-13T00:34:30.035Z,9.68
2018-02-13T00:35:34.487Z,10.10
2018-02-13T00:36:38.945Z,10.40
2018-02-13T00:37:44.184Z,8.88
2018-02-13T00:38:48.622Z,9.60
2018-02-13T00:39:53.053Z,9.48
2018-02-13T00:40:57.504Z,9.30
2018-02-13T00:42:01.976Z,9.20
2018-02-13T00:43:06.638Z,10.70
2018-02-13T00:44:11.097Z,8.50
2018-02-13T00:45:15.527Z,9.38
2018-02-13T00:46:19.973Z,8.50
2018-02-13T00:47:24.420Z,9.02
2018-02-13T00:48:28.884Z,10.63
2018-02-13T00:49:34.101Z,9.75
2018-02-13T00:50:39.311Z,9.00
2018-02-13T00:51:43.753Z,9.70
2018-02-13T00:52:48.961Z,8.35
2018-02-13T00:53:53.439Z,9.07
2018-02-13T00:54:57.882Z,7.95
2018-02-13T00:56:03.825Z,9.40
2018-02-13T00:57:08.269Z,8.40
2018-02-13T00:58:12.727Z,8.65
2018-02-13T00:59:17.172Z,9.40
2018-02-13T01:00:22.470Z,9.45
2018-02-13T01:01:26.893Z,8.52
2018-02-13T01:02:32.926Z,8.40
2018-02-13T01:03:37.369Z,10.10
2018-02-13T01:04:42.648Z,9.52
2018-02-13T01:05:47.102Z,9.93
2018-02-13T01:06:51.545Z,9.57
2018-02-13T01:07:55.991Z,9.95
2018-02-13T01:09:00.421Z,8.68
2018-02-13T01:10:04.561Z,9.25
2018-02-13T01:11:09.008Z,9.85
2018-02-13T01:12:13.441Z,9.18
2018-02-13T01:13:17.913Z,10.52
2018-02-13T01:14:23.129Z,9.43
2018-02-13T01:15:28.373Z,9.55
2018-02-13T01:16:32.826Z,10.50
2018-02-13T01:17:37.258Z,8.95
2018-02-13T01:18:41.706Z,8.73
2018-02-13T01:19:46.723Z,9.55
2018-02-13T01:20:51.940Z,9.88
2018-02-13T01:21:57.148Z,9.65
2018-02-13T01:23:01.585Z,8.20
2018-02-13T01:24:06.799Z,9.93
2018-02-13T01:25:11.296Z,9.20
2018-02-13T01:26:15.752Z,10.10
2018-02-13T01:27:20.188Z,9.05
2018-02-13T01:28:24.657Z,10.55
2018-02-13T01:29:29.090Z,9.88
2018-02-13T01:30:33.552Z,10.32
2018-02-13T01:31:38.018Z,9.48
2018-02-13T01:32:42.474Z,10.52
2018-02-13T01:33:46.925Z,9.48
2018-02-13T01:34:51.390Z,10.50
2018-02-13T01:35:55.826Z,10.00
2018-02-13T01:37:01.063Z,9.85
2018-02-13T01:38:05.496Z,9.30
2018-02-13T01:39:09.946Z,11.45
2018-02-13T01:40:14.393Z,9.55
2018-02-13T01:41:19.605Z,10.05
2018-02-13T01:42:24.091Z,11.70
2018-02-13T01:43:28.535Z,10.32
2018-02-13T01:44:32.985Z,10.65
2018-02-13T01:45:37.441Z,11.02
2018-02-13T01:46:41.896Z,9.40
2018-02-13T01:47:46.392Z,10.40
2018-02-13T01:48:51.611Z,11.20
2018-02-13T01:49:56.058Z,9.73
2018-02-13T01:51:00.502Z,10.07
2018-02-13T01:52:05.021Z,11.02
2018-02-13T01:53:10.302Z,10.82
2018-02-13T01:54:14.768Z,10.70
2018-02-13T01:55:20.732Z,10.45
2018-02-13T01:56:25.983Z,10.57
2018-02-13T01:57:31.190Z,11.68
2018-02-13T01:58:35.673Z,13.15
2018-02-13T01:59:40.130Z,11.98
2018-02-13T02:00:45.420Z,12.10
2018-02-13T02:01:49.857Z,11.32
2018-02-13T02:02:55.078Z,11.18
2018-02-13T02:03:59.604Z,11.32
2018-02-13T02:05:04.820Z,11.70
2018-02-13T02:06:09.265Z,11.95
2018-02-13T02:07:13.729Z,11.93
2018-02-13T02:08:18.177Z,11.18
2018-02-13T02:09:22.675Z,11.25
2018-02-13T02:10:27.954Z,11.73
2018-02-13T02:11:33.329Z,10.95
2018-02-13T02:12:38.567Z,11.98
2018-02-13T02:13:43.017Z,10.95
2018-02-13T02:14:47.507Z,12.13
2018-02-13T02:15:52.724Z,11.40
2018-02-13T02:16:57.957Z,12.15
2018-02-13T02:18:03.184Z,12.50
2018-02-13T02:19:08.077Z,12.10
2018-02-13T02:20:12.584Z,10.88
2018-02-13T02:21:17.033Z,12.07
2018-02-13T02:22:22.232Z,12.85
2018-02-13T02:23:26.701Z,12.35
2018-02-13T02:24:31.197Z,11.80
2018-02-13T02:25:35.677Z,11.70
2018-02-13T02:26:40.893Z,12.02
2018-02-13T02:27:46.104Z,12.25
2018-02-13T02:28:50.566Z,12.07
2018-02-13T02:29:55.773Z,11.27
2018-02-13T02:31:01.026Z,11.93
2018-02-13T02:32:05.490Z,12.40
2018-02-13T02:33:09.938Z,13.25
2018-02-13T02:34:15.181Z,11.50
2018-02-13T02:35:20.382Z,12.82
2018-02-13T02:36:24.849Z,14.18
2018-02-13T02:37:29.305Z,12.95
2018-02-13T02:38:33.751Z,12.70
2018-02-13T02:39:38.204Z,13.75
2018-02-13T02:40:42.657Z,13.62
2018-02-13T02:41:47.897Z,12.73
2018-02-13T02:43:03.542Z,11.52
2018-02-13T02:44:07.992Z,12.85
2018-02-13T02:45:12.465Z,14.00
2018-02-13T02:46:17.681Z,12.52
2018-02-13T02:47:22.205Z,13.57
2018-02-13T02:48:27.425Z,13.98
2018-02-13T02:49:31.881Z,14.05
2018-02-13T02:50:36.342Z,13.55
2018-02-13T02:51:40.785Z,12.63
2018-02-13T02:52:45.265Z,13.00
2018-02-13T02:53:49.713Z,13.25
2018-02-13T02:54:54.156Z,13.32
2018-02-13T02:55:58.587Z,16.00
2018-02-13T02:57:03.029Z,15.07
2018-02-13T02:58:08.280Z,14.10
2018-02-13T02:59:12.737Z,14.93
2018-02-13T03:00:17.184Z,12.95
2018-02-13T03:01:22.418Z,14.10
2018-02-13T03:02:27.645Z,13.20
2018-02-13T03:03:32.886Z,13.93
2018-02-13T03:04:37.350Z,12.37
2018-02-13T03:05:41.806Z,14.10
2018-02-13T03:06:46.266Z,13.50
2018-02-13T03:07:50.716Z,13.73
2018-02-13T03:08:55.642Z,12.80
2018-02-13T03:10:00.878Z,13.25
2018-02-13T03:11:05.318Z,14.25
2018-02-13T03:12:09.770Z,15.02
2018-02-13T03:13:14.358Z,14.35
2018-02-13T03:14:18.831Z,12.73
2018-02-13T03:15:23.290Z,14.60
2018-02-13T03:16:27.729Z,13.73
2018-02-13T03:17:32.950Z,14.32
2018-02-13T03:18:38.174Z,13.18
2018-02-13T03:19:42.655Z,14.15
2018-02-13T03:20:47.869Z,15.18
2018-02-13T03:21:52.315Z,14.10
2018-02-13T03:22:56.769Z,13.10
2018-02-13T03:24:02.174Z,13.15
2018-02-13T03:25:06.654Z,12.93
2018-02-13T03:26:11.089Z,13.15
2018-02-13T03:27:17.041Z,13.93
2018-02-13T03:28:21.499Z,12.30
2018-02-13T03:29:25.948Z,12.25
2018-02-13T03:30:30.422Z,12.48
2018-02-13T03:31:34.870Z,13.93
2018-02-13T03:32:39.137Z,14.45
2018-02-13T03:33:43.606Z,14.10
2018-02-13T03:34:48.037Z,13.27
2018-02-13T03:35:53.278Z,15.00
2018-02-13T03:36:57.742Z,13.48
2018-02-13T03:38:02.199Z,15.35
2018-02-13T03:39:06.646Z,12.75
2018-02-13T03:40:11.109Z,15.02
2018-02-13T03:41:15.609Z,14.50
2018-02-13T03:42:20.909Z,12.88
2018-02-13T03:43:25.362Z,14.20
2018-02-13T03:44:29.821Z,14.20
2018-02-13T03:45:34.255Z,12.93
2018-02-13T03:46:38.733Z,13.93
2018-02-13T03:47:44.193Z,14.40
2018-02-13T03:48:48.642Z,13.93
2018-02-13T03:49:53.107Z,13.90
2018-02-13T03:50:57.541Z,13.65
2018-02-13T03:52:02.039Z,14.18
2018-02-13T03:53:06.492Z,13.43
2018-02-13T03:54:10.950Z,13.30
2018-02-13T03:55:15.409Z,13.32
2018-02-13T03:56:19.857Z,13.60
2018-02-13T03:57:24.328Z,14.25
2018-02-13T03:58:28.780Z,13.25
2018-02-13T03:59:33.230Z,12.20
2018-02-13T04:00:37.682Z,13.50
2018-02-13T04:01:42.129Z,13.70
2018-02-13T04:02:46.623Z,15.38
2018-02-13T04:03:51.068Z,14.35
2018-02-13T04:04:55.505Z,15.13
2018-02-13T04:05:59.953Z,14.20
2018-02-13T04:07:04.142Z,14.32
2018-02-13T04:08:09.553Z,14.02
2018-02-13T04:09:14.878Z,13.18
2018-02-13T04:10:20.085Z,14.40
2018-02-13T04:11:24.531Z,15.50
2018-02-13T04:12:29.737Z,14.60
2018-02-13T04:13:34.985Z,14.00
2018-02-13T04:14:40.188Z,14.70
2018-02-13T04:15:44.378Z,13.98
2018-02-13T04:16:48.828Z,13.20
2018-02-13T04:17:54.092Z,15.20
2018-02-13T04:18:58.376Z,14.48
2018-02-13T04:20:02.853Z,13.68
2018-02-13T04:21:07.298Z,12.98
2018-02-13T04:22:12.492Z,14.23
2018-02-13T04:23:16.966Z,15.32
2018-02-13T04:24:21.449Z,13.02
2018-02-13T04:25:25.909Z,14.02
2018-02-13T04:26:30.383Z,13.80
2018-02-13T04:27:34.821Z,14.50
2018-02-13T04:28:39.282Z,15.35
2018-02-13T04:29:43.765Z,14.55
2018-02-13T04:30:48.025Z,14.10
2018-02-13T04:31:52.477Z,13.88
2018-02-13T04:32:56.927Z,13.25
2018-02-13T04:34:01.378Z,14.02
2018-02-13T04:35:05.847Z,14.45
2018-02-13T04:36:10.301Z,14.30
2018-02-13T04:37:14.748Z,14.07
2018-02-13T04:38:19.974Z,13.80
2018-02-13T04:39:24.420Z,13.77
2018-02-13T04:40:28.890Z,15.15
2018-02-13T04:41:34.098Z,15.82
2018-02-13T04:42:38.561Z,14.32
2018-02-13T04:43:43.773Z,15.07
2018-02-13T04:44:48.239Z,15.25
2018-02-13T04:45:52.704Z,15.45
2018-02-13T04:46:57.908Z,15.95
2018-02-13T04:48:03.124Z,14.80
2018-02-13T04:49:07.572Z,15.88
2018-02-13T04:50:12.781Z,15.88
2018-02-13T04:51:17.282Z,14.52
2018-02-13T04:52:21.737Z,14.35
2018-02-13T04:53:26.185Z,14.65
2018-02-13T04:54:30.626Z,16.30
2018-02-13T04:55:35.085Z,15.50
2018-02-13T04:56:39.556Z,14.35
2018-02-13T04:57:44.039Z,15.43
2018-02-13T04:58:48.481Z,15.38
2018-02-13T04:59:53.806Z,15.93
2018-02-13T05:00:59.028Z,13.82
2018-02-13T05:02:03.551Z,14.77
2018-02-13T05:03:08.767Z,14.23
2018-02-13T05:04:14.243Z,15.80
2018-02-13T05:05:19.436Z,15.98
2018-02-13T05:06:23.885Z,15.57
2018-02-13T05:07:28.350Z,16.48
2018-02-13T05:08:32.794Z,14.85
2018-02-13T05:09:37.248Z,18.33
2018-02-13T05:10:41.769Z,17.27
2018-02-13T05:11:46.197Z,15.65
2018-02-13T05:12:50.710Z,15.02
2018-02-13T05:13:55.317Z,15.57
2018-02-13T05:14:59.781Z,14.55
2018-02-13T05:16:04.256Z,13.73
2018-02-13T05:17:09.472Z,14.45
2018-02-13T05:18:13.949Z,14.45
2018-02-13T05:19:18.398Z,15.10
2018-02-13T05:20:23.613Z,15.73
2018-02-13T05:21:28.044Z,17.83
2018-02-13T05:22:32.481Z,15.48
2018-02-13T05:23:37.043Z,15.13
2018-02-13T05:24:41.478Z,16.35
2018-02-13T05:25:46.700Z,13.60
2018-02-13T05:26:51.152Z,13.75
2018-02-13T05:27:55.623Z,15.70
2018-02-13T05:29:01.770Z,15.05
2018-02-13T05:30:06.238Z,25.62
2018-02-13T05:31:10.685Z,16.35
2018-02-13T05:32:15.213Z,16.25
2018-02-13T05:33:19.641Z,14.70
2018-02-13T05:34:24.100Z,16.10
2018-02-13T05:35:28.549Z,16.70
2018-02-13T05:36:33.002Z,14.45
2018-02-13T05:37:38.216Z,16.08
2018-02-13T05:38:43.491Z,14.90
2018-02-13T05:39:47.997Z,13.73
2018-02-13T05:40:52.498Z,15.50
2018-02-13T05:41:57.058Z,14.95
2018-02-13T05:43:01.547Z,14.60
2018-02-13T05:44:05.978Z,14.90
2018-02-13T05:45:10.465Z,17.70
2018-02-13T05:46:15.138Z,15.82
2018-02-13T05:47:19.585Z,15.50
2018-02-13T05:48:24.046Z,14.55
2018-02-13T05:49:29.988Z,15.10
2018-02-13T05:50:34.486Z,14.63
2018-02-13T05:51:38.999Z,16.05
2018-02-13T05:52:43.442Z,14.40
2018-02-13T05:53:48.682Z,14.87
2018-02-13T05:54:53.129Z,14.98
2018-02-13T05:55:57.624Z,15.07
2018-02-13T05:57:02.075Z,14.48
2018-02-13T05:58:06.532Z,14.98
2018-02-13T05:59:11.811Z,14.02
2018-02-13T06:00:16.252Z,15.30
2018-02-13T06:01:20.733Z,14.75
2018-02-13T06:02:25.160Z,16.65
2018-02-13T06:03:30.384Z,14.27
2018-02-13T06:04:34.883Z,19.20
2018-02-13T06:05:39.323Z,14.95
2018-02-13T06:06:45.343Z,16.30
2018-02-13T06:07:49.767Z,14.65
2018-02-13T06:08:55.717Z,14.48
2018-02-13T06:10:00.168Z,15.90
2018-02-13T06:11:04.658Z,15.35
2018-02-13T06:12:09.906Z,15.23
2018-02-13T06:13:14.163Z,14.35
2018-02-13T06:14:18.618Z,15.30
2018-02-13T06:15:23.829Z,17.25
2018-02-13T06:16:29.046Z,15.80
2018-02-13T06:17:33.505Z,15.82
2018-02-13T06:18:37.961Z,15.20
2018-02-13T06:19:43.301Z,15.30
2018-02-13T06:20:48.752Z,14.52
2018-02-13T06:21:53.945Z,14.87
2018-02-13T06:22:58.452Z,15.52
2018-02-13T06:24:02.965Z,16.35
2018-02-13T06:25:07.402Z,14.27
2018-02-13T06:26:11.502Z,14.93
2018-02-13T06:27:16.169Z,17.98
2018-02-13T06:28:20.625Z,16.45
2018-02-13T06:29:26.656Z,17.05
2018-02-13T06:30:31.076Z,16.02
2018-02-13T06:31:35.525Z,14.77
2018-02-13T06:32:39.782Z,18.92
2018-02-13T06:33:44.243Z,16.50
2018-02-13T06:34:48.496Z,17.08
2018-02-13T06:35:52.930Z,15.55
2018-02-13T06:36:57.458Z,16.73
2018-02-13T06:38:02.666Z,15.55
2018-02-13T06:39:07.982Z,16.87
2018-02-13T06:40:12.415Z,16.05
2018-02-13T06:41:18.361Z,17.17
2018-02-13T06:42:23.591Z,17.87
2018-02-13T06:43:28.042Z,17.33
2018-02-13T06:44:32.551Z,16.00
2018-02-13T06:45:37.006Z,17.17
2018-02-13T06:46:41.448Z,17.60
2018-02-13T06:47:46.656Z,16.20
2018-02-13T06:48:51.113Z,16.50
2018-02-13T06:49:55.588Z,15.48
2018-02-13T06:51:00.038Z,16.62
2018-02-13T06:52:04.490Z,14.60
2018-02-13T06:53:08.927Z,16.80
2018-02-13T06:54:14.129Z,15.35
2018-02-13T06:55:20.142Z,15.65
2018-02-13T06:56:24.589Z,16.98
2018-02-13T06:57:29.248Z,16.08
2018-02-13T06:58:34.451Z,16.73
2018-02-13T06:59:38.884Z,16.35
2018-02-13T07:00:43.354Z,16.87
2018-02-13T07:01:47.858Z,17.62
2018-02-13T07:02:52.368Z,16.67
2018-02-13T07:03:56.851Z,19.02
2018-02-13T07:05:01.293Z,18.60
2018-02-13T07:06:05.766Z,23.92
2018-02-13T07:07:10.217Z,16.10
2018-02-13T07:08:14.661Z,19.80
2018-02-13T07:09:19.877Z,18.08
2018-02-13T07:10:24.325Z,18.58
2018-02-13T07:11:28.798Z,17.90
2018-02-13T07:12:34.009Z,16.67
2018-02-13T07:13:38.461Z,16.05
2018-02-13T07:14:43.674Z,15.90
2018-02-13T07:15:48.124Z,16.70
2018-02-13T07:16:52.829Z,15.63
2018-02-13T07:17:57.273Z,16.85
2018-02-13T07:19:01.709Z,16.00
2018-02-13T07:20:06.155Z,15.60
2018-02-13T07:21:11.377Z,15.93
2018-02-13T07:22:16.675Z,15.48
2018-02-13T07:23:21.181Z,14.23
2018-02-13T07:24:25.686Z,15.35
2018-02-13T07:25:30.125Z,16.27
2018-02-13T07:26:34.573Z,15.02
2018-02-13T07:27:39.042Z,15.75
2018-02-13T07:28:43.498Z,13.90
2018-02-13T07:29:48.051Z,15.07
2018-02-13T07:30:52.496Z,13.85
2018-02-13T07:31:57.705Z,13.98
2018-02-13T07:33:02.194Z,12.37
2018-02-13T07:34:06.633Z,13.27
2018-02-13T07:35:11.853Z,14.27
2018-02-13T07:36:17.069Z,13.00
2018-02-13T07:37:21.549Z,14.05
2018-02-13T07:38:26.036Z,14.10
2018-02-13T07:39:30.474Z,13.85
2018-02-13T07:40:34.932Z,14.25
2018-02-13T07:41:39.202Z,12.85
2018-02-13T07:42:43.733Z,12.95
2018-02-13T07:43:48.420Z,13.00
2018-02-13T07:44:52.891Z,12.55
2018-02-13T07:45:58.105Z,11.55
2018-02-13T07:47:03.324Z,12.07
2018-02-13T07:48:07.764Z,13.52
2018-02-13T07:49:13.042Z,11.45
2018-02-13T07:50:17.514Z,12.90
2018-02-13T07:51:22.712Z,12.52
2018-02-13T07:52:27.505Z,12.05
2018-02-13T07:53:32.024Z,12.50
2018-02-13T07:54:36.557Z,12.15
2018-02-13T07:55:41.101Z,11.85
2018-02-13T07:56:46.306Z,11.70
2018-02-13T07:57:51.405Z,11.60
2018-02-13T07:58:56.771Z,11.95
2018-02-13T08:00:02.011Z,12.23
2018-02-13T08:01:07.217Z,13.45
2018-02-13T08:02:12.429Z,11.82
2018-02-13T08:03:17.653Z,13.38
2018-02-13T08:04:22.106Z,12.20
2018-02-13T08:05:27.341Z,13.38
2018-02-13T08:06:31.907Z,13.18
2018-02-13T08:07:36.393Z,13.25
2018-02-13T08:08:40.842Z,13.70
2018-02-13T08:09:46.053Z,13.02
2018-02-13T08:10:50.366Z,11.57
2018-02-13T08:11:54.800Z,12.80
2018-02-13T08:13:00.010Z,14.82
2018-02-13T08:14:04.461Z,13.27
2018-02-13T08:15:08.928Z,13.35
2018-02-13T08:16:13.410Z,13.48
2018-02-13T08:17:17.866Z,11.95
2018-02-13T08:18:22.305Z,13.20
2018-02-13T08:19:26.752Z,13.85
2018-02-13T08:20:31.253Z,13.90
2018-02-13T08:21:35.950Z,12.45
2018-02-13T08:22:40.411Z,12.45
2018-02-13T08:24:56.735Z,13.75
2018-02-13T08:26:02.680Z,14.18
2018-02-13T08:27:07.986Z,12.52
2018-02-13T08:28:12.417Z,11.80
2018-02-13T08:29:17.637Z,12.13
2018-02-13T08:30:22.877Z,11.38
2018-02-13T08:31:28.137Z,12.37
2018-02-13T08:32:33.546Z,12.40
2018-02-13T08:33:38.764Z,12.50
2018-02-13T08:34:43.202Z,11.52
2018-02-13T08:35:47.658Z,11.73
2018-02-13T08:36:52.104Z,11.77
2018-02-13T08:37:57.381Z,12.75
2018-02-13T08:39:01.828Z,11.63
2018-02-13T08:40:07.049Z,11.93
2018-02-13T08:41:11.558Z,12.57
2018-02-13T08:42:15.998Z,12.07
2018-02-13T08:43:21.237Z,11.88
2018-02-13T08:44:26.824Z,12.20
2018-02-13T08:45:31.338Z,10.85
2018-02-13T08:46:35.785Z,10.63
2018-02-13T08:47:41.050Z,10.98
2018-02-13T08:48:45.190Z,11.77
2018-02-13T08:49:49.696Z,11.50
2018-02-13T08:50:54.138Z,10.05
2018-02-13T08:51:58.582Z,10.00
2018-02-13T08:53:03.051Z,11.35
2018-02-13T08:54:07.548Z,11.43
2018-02-13T08:55:12.060Z,10.50
2018-02-13T08:56:16.502Z,11.32
2018-02-13T08:57:21.737Z,12.85
2018-02-13T08:58:26.945Z,11.60
2018-02-13T08:59:32.193Z,11.65
2018-02-13T09:00:37.413Z,12.20
2018-02-13T09:01:42.648Z,10.35
2018-02-13T09:02:47.865Z,10.82
2018-02-13T09:03:53.893Z,11.27
2018-02-13T09:04:58.352Z,11.57
2018-02-13T09:06:03.019Z,12.02
2018-02-13T09:07:07.469Z,10.75
2018-02-13T09:08:11.926Z,11.18
2018-02-13T09:09:16.389Z,11.70
2018-02-13T09:10:21.631Z,12.75
2018-02-13T09:11:26.081Z,11.18
2018-02-13T09:12:30.532Z,11.60
2018-02-13T09:13:35.761Z,12.98
2018-02-13T09:14:40.206Z,12.40
2018-02-13T09:15:44.689Z,11.75
2018-02-13T09:16:49.892Z,10.90
2018-02-13T09:17:54.400Z,11.48
2018-02-13T09:18:59.046Z,11.95
2018-02-13T09:20:04.262Z,12.73
2018-02-13T09:21:09.510Z,13.32
2018-02-13T09:22:13.971Z,13.45
2018-02-13T09:23:18.632Z,10.75
2018-02-13T09:24:23.862Z,12.25
2018-02-13T09:25:29.112Z,11.00
2018-02-13T09:26:33.578Z,12.00
2018-02-13T09:27:38.079Z,13.18
2018-02-13T09:28:42.525Z,12.52
2018-02-13T09:29:47.741Z,12.60
2018-02-13T09:30:52.969Z,12.93
2018-02-13T09:31:57.450Z,13.00
2018-02-13T09:33:01.907Z,13.50
2018-02-13T09:34:07.137Z,12.90
2018-02-13T09:35:12.349Z,12.18
2018-02-13T09:36:17.606Z,13.90
2018-02-13T09:37:22.085Z,11.73
2018-02-13T09:38:26.546Z,11.52
2018-02-13T09:39:31.021Z,10.85
2018-02-13T09:40:36.248Z,10.60
2018-02-13T09:41:41.468Z,11.30
2018-02-13T09:42:45.980Z,12.37
2018-02-13T09:43:51.196Z,12.55
2018-02-13T09:44:55.658Z,12.40
2018-02-13T09:45:59.981Z,12.37
2018-02-13T09:47:04.435Z,11.55
2018-02-13T09:48:08.908Z,13.07
2018-02-13T09:49:13.377Z,11.98
2018-02-13T09:50:17.829Z,11.85
2018-02-13T09:51:22.281Z,13.23
2018-02-13T09:52:26.734Z,12.73
2018-02-13T09:53:31.277Z,13.55
2018-02-13T09:54:35.750Z,13.60
2018-02-13T09:55:40.313Z,12.75
2018-02-13T09:56:44.752Z,12.05
2018-02-13T09:57:49.998Z,13.05
2018-02-13T09:58:54.481Z,12.80
2018-02-13T09:59:58.933Z,11.05
2018-02-13T10:01:03.824Z,12.48
2018-02-13T10:02:09.041Z,11.80
2018-02-13T10:03:13.507Z,10.20
2018-02-13T10:04:17.795Z,11.25
2018-02-13T10:05:22.256Z,11.55
2018-02-13T10:06:26.701Z,11.00
2018-02-13T10:07:31.925Z,11.30
2018-02-13T10:08:37.226Z,11.18
2018-02-13T10:09:41.693Z,10.95
2018-02-13T10:10:46.154Z,11.10
2018-02-13T10:11:50.602Z,11.45
2018-02-13T10:12:55.058Z,11.10
2018-02-13T10:13:59.521Z,11.25
2018-02-13T10:15:04.504Z,10.75
2018-02-13T10:16:08.957Z,11.35
2018-02-13T10:17:13.408Z,10.90
2018-02-13T10:18:17.860Z,10.30
2018-02-13T10:19:23.174Z,10.40
2018-02-13T10:20:27.460Z,11.63
2018-02-13T10:21:31.798Z,10.20
2018-02-13T10:22:36.961Z,11.43
2018-02-13T10:23:41.232Z,9.70
2018-02-13T10:24:46.454Z,12.07
2018-02-13T10:25:50.942Z,10.50
2018-02-13T10:26:55.389Z,10.15
2018-02-13T10:27:59.842Z,10.02
2018-02-13T10:29:04.299Z,10.55
2018-02-13T10:30:08.091Z,10.13
2018-02-13T10:31:12.555Z,9.35
2018-02-13T10:32:17.014Z,10.65
2018-02-13T10:33:21.442Z,10.00
2018-02-13T10:34:26.748Z,11.23
2018-02-13T10:35:31.258Z,12.32
2018-02-13T10:36:35.730Z,11.45
2018-02-13T10:37:39.993Z,10.77
2018-02-13T10:38:44.434Z,9.98
2018-02-13T10:39:48.698Z,10.85
2018-02-13T10:40:53.140Z,11.68
2018-02-13T10:41:58.421Z,11.82
2018-02-13T10:43:02.870Z,11.43
2018-02-13T10:44:08.086Z,12.18
2018-02-13T10:45:12.537Z,10.70
2018-02-13T10:46:17.748Z,11.63
2018-02-13T10:47:22.221Z,12.55
2018-02-13T10:48:26.696Z,11.35
2018-02-13T10:49:31.930Z,11.50
2018-02-13T10:50:37.146Z,12.15
2018-02-13T10:51:42.362Z,11.12
2018-02-13T10:52:48.351Z,11.18
2018-02-13T10:53:52.807Z,11.70
2018-02-13T10:54:57.259Z,10.80
2018-02-13T10:56:02.470Z,11.88
2018-02-13T10:57:07.694Z,11.52
2018-02-13T10:58:12.161Z,11.65
2018-02-13T10:59:16.702Z,10.95
2018-02-13T11:00:20.946Z,10.82
2018-02-13T11:01:30.781Z,12.60
2018-02-13T11:02:36.006Z,11.75
2018-02-13T11:03:41.242Z,11.25
2018-02-13T11:04:46.456Z,11.05
2018-02-13T11:05:51.679Z,11.23
2018-02-13T11:06:56.153Z,11.40
2018-02-13T11:08:00.607Z,11.02
2018-02-13T11:09:05.525Z,11.30
2018-02-13T11:10:09.961Z,8.55
2018-02-13T11:11:15.057Z,10.77
2018-02-13T11:12:20.369Z,11.43
2018-02-13T11:13:25.004Z,10.25
2018-02-13T11:14:29.465Z,10.95
2018-02-13T11:15:33.804Z,9.80
2018-02-13T11:16:38.053Z,10.55
2018-02-13T11:17:43.186Z,10.93
2018-02-13T11:18:48.385Z,10.85
2018-02-13T11:19:52.859Z,11.35
2018-02-13T11:20:57.307Z,10.65
2018-02-13T11:22:01.757Z,10.07
2018-02-13T11:23:06.201Z,11.15
2018-02-13T11:24:10.638Z,11.07
2018-02-13T11:25:15.890Z,9.75
2018-02-13T11:26:21.097Z,12.90
2018-02-13T11:27:25.544Z,12.30
2018-02-13T11:28:29.987Z,11.63
2018-02-13T11:29:34.429Z,12.55
2018-02-13T11:30:39.678Z,11.50
2018-02-13T11:31:44.902Z,11.88
2018-02-13T11:32:50.144Z,10.38
2018-02-13T11:33:54.805Z,10.65
2018-02-13T11:34:59.268Z,10.05
2018-02-13T11:36:04.497Z,11.32
2018-02-13T11:37:09.709Z,10.38
2018-02-13T11:38:14.150Z,9.25
2018-02-13T11:39:18.610Z,10.70
2018-02-13T11:40:23.056Z,11.40
2018-02-13T11:41:27.556Z,10.63
2018-02-13T11:42:32.949Z,9.52
2018-02-13T11:43:37.404Z,11.45
2018-02-13T11:44:42.616Z,10.73
2018-02-13T11:45:47.931Z,10.68
2018-02-13T11:46:52.393Z,10.10
2018-02-13T11:47:56.837Z,12.55
2018-02-13T11:49:01.365Z,10.88
2018-02-13T11:50:05.798Z,9.77
2018-02-13T11:51:10.244Z,10.32
2018-02-13T11:52:14.530Z,9.48
2018-02-13T11:53:19.771Z,10.35
2018-02-13T11:54:24.990Z,10.32
2018-02-13T11:55:30.227Z,10.88
2018-02-13T11:56:35.443Z,11.30
2018-02-13T11:57:40.682Z,10.20
2018-02-13T11:58:45.964Z,11.63
2018-02-13T11:59:50.419Z,10.00
2018-02-13T12:00:55.630Z,10.52
2018-02-13T12:02:00.082Z,10.38
2018-02-13T12:03:04.354Z,10.40
2018-02-13T12:04:09.586Z,10.60
2018-02-13T12:05:14.797Z,9.93
2018-02-13T12:06:20.126Z,10.45
2018-02-13T12:07:24.560Z,11.18
2018-02-13T12:08:30.221Z,9.90
2018-02-13T12:09:35.439Z,9.80
2018-02-13T12:10:40.654Z,11.12
2018-02-13T12:11:45.877Z,10.15
2018-02-13T12:12:51.108Z,10.85
2018-02-13T12:13:56.363Z,10.20
2018-02-13T12:15:00.807Z,10.75
2018-02-13T12:16:05.252Z,10.85
2018-02-13T12:17:09.713Z,10.20
2018-02-13T12:18:14.257Z,10.55
2018-02-13T12:19:18.717Z,9.85
2018-02-13T12:20:23.171Z,10.55
2018-02-13T12:21:27.623Z,11.95
2018-02-13T12:22:32.822Z,8.75
2018-02-13T12:23:37.272Z,8.70
2018-02-13T12:24:42.502Z,8.95
2018-02-13T12:25:47.711Z,8.23
2018-02-13T12:26:52.353Z,8.35
2018-02-13T12:27:57.559Z,9.43
2018-02-13T12:29:01.798Z,8.70
2018-02-13T12:30:06.265Z,10.05
2018-02-13T12:31:10.704Z,7.90
2018-02-13T12:32:15.918Z,8.23
2018-02-13T12:33:20.026Z,9.05
2018-02-13T12:34:25.229Z,9.15
2018-02-13T12:35:29.365Z,7.60
2018-02-13T12:36:33.817Z,11.40
2018-02-13T12:37:38.274Z,7.57
2018-02-13T12:38:42.751Z,8.95
2018-02-13T12:39:46.855Z,8.18
2018-02-13T12:40:51.320Z,7.70
2018-02-13T12:41:55.757Z,8.88
2018-02-13T12:43:00.090Z,7.65
2018-02-13T12:44:04.520Z,8.73
2018-02-13T12:45:08.949Z,8.13
2018-02-13T12:46:13.847Z,8.18
2018-02-13T12:47:18.317Z,9.52
2018-02-13T12:48:22.760Z,8.15
2018-02-13T12:49:27.215Z,8.15
2018-02-13T12:50:32.409Z,9.32
2018-02-13T12:51:36.861Z,6.75
2018-02-13T12:52:40.951Z,7.37
2018-02-13T12:53:46.152Z,8.20
2018-02-13T12:54:50.597Z,8.60
2018-02-13T12:55:54.509Z,8.43
2018-02-13T12:56:58.965Z,8.65
2018-02-13T12:58:03.237Z,9.27
2018-02-13T12:59:07.698Z,10.18
2018-02-13T13:00:12.170Z,9.50
2018-02-13T13:01:16.621Z,6.80
2018-02-13T13:02:20.768Z,6.62
2018-02-13T13:03:25.296Z,6.60
2018-02-13T13:04:29.565Z,6.30
2018-02-13T13:05:34.785Z,6.55
2018-02-13T13:06:39.215Z,6.20
2018-02-13T13:07:44.029Z,9.07
2018-02-13T13:08:49.223Z,7.72
2018-02-13T13:09:53.670Z,8.50
2018-02-13T13:10:58.165Z,7.75
2018-02-13T13:12:03.440Z,8.30
2018-02-13T13:13:07.898Z,8.07
2018-02-13T13:14:12.350Z,8.20
2018-02-13T13:15:16.983Z,7.93
2018-02-13T13:16:21.415Z,7.90
2018-02-13T13:17:25.859Z,7.35
2018-02-13T13:18:31.096Z,8.40
2018-02-13T13:19:35.860Z,8.48
2018-02-13T13:20:40.294Z,8.15
2018-02-13T13:21:44.731Z,6.00
2018-02-13T13:22:49.935Z,8.50
2018-02-13T13:23:54.393Z,7.20
2018-02-13T13:24:58.821Z,6.62
2018-02-13T13:26:03.687Z,7.47
2018-02-13T13:27:08.891Z,6.82
2018-02-13T13:28:13.380Z,7.20
2018-02-13T13:29:17.830Z,7.87
2018-02-13T13:30:23.773Z,8.93
2018-02-13T13:31:29.715Z,6.70
2018-02-13T13:32:34.142Z,7.80
2018-02-13T13:33:39.345Z,7.87
2018-02-13T13:34:43.802Z,7.65
2018-02-13T13:35:48.221Z,6.90
2018-02-13T13:36:52.672Z,5.95
2018-02-13T13:37:57.183Z,6.90
2018-02-13T13:39:01.611Z,6.60
2018-02-13T13:40:06.066Z,6.55
2018-02-13T13:41:10.501Z,6.18
2018-02-13T13:42:15.024Z,7.03
2018-02-13T13:43:19.259Z,7.18
2018-02-13T13:44:24.467Z,7.90
2018-02-13T13:45:28.926Z,7.15
2018-02-13T13:46:34.128Z,6.95
2018-02-13T13:47:38.569Z,7.70
2018-02-13T13:48:43.015Z,7.47
2018-02-13T13:49:47.448Z,6.75
2018-02-13T13:50:51.898Z,6.78
2018-02-13T13:51:56.341Z,7.65
2018-02-13T13:53:00.777Z,7.30
2018-02-13T13:54:05.215Z,7.50
2018-02-13T13:55:10.404Z,6.93
2018-02-13T13:56:14.908Z,6.40
2018-02-13T13:57:19.338Z,6.25
2018-02-13T13:58:24.351Z,5.47
2018-02-13T13:59:28.782Z,4.55
2018-02-13T14:00:34.054Z,5.15
2018-02-13T14:01:38.560Z,4.72